Time;durP1;ratioP1;P1;durP2;ratioP2;P2;SDS_P1;SDS_P2;PMS_P1;PMS_P2;Temp;Humidity;BMP_temperature;BMP_pressure;BME280_temperature;BME280_humidity;BME280_pressure;Samples;Min_cycle;Max_cycle;Signal;HPM_P1;HPM_P2
2022/11/28 00:01:28;;;;;;;12.85;6.95;;;6.50;99.90;;;;;;4952210;28;21245;-88
2022/11/28 00:03:54;;;;;;;15.32;12.02;;;6.50;99.90;;;;;;4972268;28;20479;-89
2022/11/28 00:06:20;;;;;;;12.50;7.25;;;6.50;99.90;;;;;;4971369;28;20074;-89
2022/11/28 00:08:45;;;;;;;12.75;7.05;;;6.50;99.90;;;;;;4951967;28;20038;-89
2022/11/28 00:11:13;;;;;;;12.00;6.00;;;6.50;99.90;;;;;;4953221;28;20044;-88
2022/11/28 00:13:40;;;;;;;15.20;8.00;;;6.50;99.90;;;;;;4967535;28;20030;-89
2022/11/28 00:16:07;;;;;;;14.43;8.45;;;6.40;99.90;;;;;;4954537;28;20127;-89
2022/11/28 00:18:33;;;;;;;12.10;7.50;;;6.50;99.90;;;;;;4952936;28;20094;-89
2022/11/28 00:21:05;;;;;;;13.88;7.55;;;6.50;99.90;;;;;;4953060;28;20038;-89
2022/11/28 00:23:32;;;;;;;14.05;7.03;;;6.50;99.90;;;;;;4971273;28;20046;-88
2022/11/28 00:26:08;;;;;;;12.32;7.47;;;6.50;99.90;;;;;;4969622;28;20039;-88
2022/11/28 00:28:34;;;;;;;13.52;7.97;;;6.60;99.90;;;;;;4952632;28;20122;-89
2022/11/28 00:31:00;;;;;;;16.30;8.23;;;6.50;99.90;;;;;;4954411;28;20096;-89
2022/11/28 00:33:25;;;;;;;13.48;7.88;;;6.60;99.90;;;;;;4952828;28;20042;-88
2022/11/28 00:35:57;;;;;;;16.52;13.45;;;6.60;99.90;;;;;;4953382;28;20030;-88
2022/11/28 00:38:23;;;;;;;15.27;8.02;;;6.60;99.90;;;;;;4954658;28;20053;-88
2022/11/28 00:41:17;;;;;;;12.35;6.70;;;6.60;99.90;;;;;;4952120;28;20038;-88
2022/11/28 00:43:44;;;;;;;14.20;7.75;;;6.60;99.90;;;;;;4951394;28;20145;-89
2022/11/28 00:46:12;;;;;;;12.48;7.88;;;6.70;99.90;;;;;;4952892;28;20079;-89
2022/11/28 00:48:37;;;;;;;13.07;8.32;;;6.60;99.90;;;;;;4952715;28;20121;-89
2022/11/28 00:51:18;;;;;;;12.40;6.80;;;6.60;99.90;;;;;;4937649;28;20067;-88
2022/11/28 00:53:46;;;;;;;12.13;5.85;;;6.60;99.90;;;;;;4968622;28;20026;-89
2022/11/28 00:56:13;;;;;;;12.68;8.57;;;6.60;99.90;;;;;;4968134;28;20047;-88
2022/11/28 00:58:40;;;;;;;14.50;8.68;;;6.60;99.90;;;;;;4948979;29;20047;-88
2022/11/28 01:01:18;;;;;;;12.65;7.05;;;6.70;99.90;;;;;;4935320;28;20039;-89
2022/11/28 01:03:47;;;;;;;11.75;6.82;;;6.70;99.90;;;;;;4971252;28;20046;-89
2022/11/28 01:06:23;;;;;;;12.50;7.43;;;6.70;99.90;;;;;;4970466;28;20111;-89
2022/11/28 01:08:49;;;;;;;12.15;6.80;;;6.70;99.90;;;;;;4971008;28;20035;-89
2022/11/28 01:11:15;;;;;;;12.80;7.78;;;6.70;99.90;;;;;;4949920;28;20068;-90
2022/11/28 01:13:40;;;;;;;16.92;12.73;;;6.70;99.90;;;;;;4969540;28;20031;-89
2022/11/28 01:16:07;;;;;;;12.38;7.65;;;6.80;99.90;;;;;;4969450;28;20112;-89
2022/11/28 01:18:32;;;;;;;12.65;7.78;;;6.80;99.90;;;;;;4936296;28;20498;-89
2022/11/28 01:20:58;;;;;;;13.52;8.02;;;6.80;99.90;;;;;;4952658;28;20078;-88
2022/11/28 01:23:24;;;;;;;15.68;12.73;;;6.80;99.90;;;;;;4950951;28;20182;-89
2022/11/28 01:25:49;;;;;;;14.20;8.27;;;6.80;99.90;;;;;;4936672;28;20097;-89
2022/11/28 01:28:15;;;;;;;12.75;7.30;;;6.80;99.90;;;;;;4915661;29;20515;-89
2022/11/28 01:30:41;;;;;;;15.00;7.57;;;6.80;99.90;;;;;;4932627;29;20118;-89
2022/11/28 01:33:06;;;;;;;11.77;7.47;;;6.80;99.90;;;;;;4930486;29;20066;-89
2022/11/28 01:35:32;;;;;;;12.73;6.85;;;6.80;99.90;;;;;;4929896;29;20400;-89
2022/11/28 01:37:57;;;;;;;13.45;11.10;;;6.80;99.90;;;;;;4915327;29;20040;-89
2022/11/28 01:40:23;;;;;;;15.93;12.20;;;6.90;99.90;;;;;;4928059;29;20036;-89
2022/11/28 01:42:49;;;;;;;13.00;8.02;;;6.90;99.90;;;;;;4926082;29;20106;-89
2022/11/28 01:45:18;;;;;;;12.70;7.40;;;6.90;99.90;;;;;;4930924;29;20044;-90
2022/11/28 01:47:44;;;;;;;12.18;6.80;;;6.90;99.90;;;;;;4930290;29;20095;-89
2022/11/28 01:50:11;;;;;;;13.13;7.80;;;6.90;99.90;;;;;;4915393;29;20098;-90
2022/11/28 01:52:40;;;;;;;15.82;12.30;;;6.90;99.90;;;;;;4930310;29;20058;-89
2022/11/28 01:55:06;;;;;;;14.15;11.70;;;7.00;99.90;;;;;;4930835;29;20121;-89
2022/11/28 01:57:33;;;;;;;15.52;8.45;;;7.00;99.90;;;;;;4931207;29;20050;-90
2022/11/28 02:00:09;;;;;;;13.65;7.55;;;7.00;99.90;;;;;;4912413;29;20047;-89
2022/11/28 02:02:39;;;;;;;13.77;8.40;;;7.00;99.90;;;;;;4932045;29;20140;-89
2022/11/28 02:05:06;;;;;;;11.80;7.68;;;7.00;99.90;;;;;;4924193;29;20043;-90
2022/11/28 02:07:33;;;;;;;13.50;7.00;;;6.90;99.90;;;;;;4931271;29;20484;-89
2022/11/28 02:10:00;;;;;;;12.45;7.85;;;6.90;99.90;;;;;;4930044;29;20055;-89
2022/11/28 02:12:53;;;;;;;13.13;7.05;;;7.00;99.90;;;;;;4930184;29;20518;-89
2022/11/28 02:15:47;;;;;;;12.18;7.28;;;6.90;99.90;;;;;;4925694;29;20048;-90
2022/11/28 02:18:40;;;;;;;13.90;8.02;;;7.00;99.90;;;;;;4926467;29;20441;-89
2022/11/28 02:21:41;;;;;;;11.30;7.07;;;7.00;99.90;;;;;;4922755;29;20075;-89
2022/11/28 02:24:25;;;;;;;12.25;7.07;;;6.90;99.90;;;;;;4874244;29;20048;-89
2022/11/28 02:27:09;;;;;;;16.23;12.30;;;7.00;99.90;;;;;;4902816;29;20044;-89
2022/11/28 02:29:58;;;;;;;13.88;8.57;;;7.00;99.90;;;;;;4896980;29;20139;-89
2022/11/28 02:32:28;;;;;;;12.30;7.45;;;7.10;99.90;;;;;;4926061;29;20086;-89
2022/11/28 02:34:56;;;;;;;13.98;8.65;;;7.00;99.90;;;;;;4929935;29;20517;-89
2022/11/28 02:37:31;;;;;;;15.40;9.02;;;7.00;99.90;;;;;;4914312;29;20083;-89
2022/11/28 02:40:13;;;;;;;15.02;8.95;;;7.10;99.90;;;;;;4931267;29;20123;-88
2022/11/28 02:43:17;;;;;;;15.40;9.27;;;7.10;99.90;;;;;;4916572;29;20089;-89
2022/11/28 02:45:54;;;;;;;16.27;8.82;;;7.10;99.90;;;;;;4911903;29;20168;-89
2022/11/28 02:48:58;;;;;;;17.10;13.65;;;7.10;99.90;;;;;;4913584;29;20060;-88
2022/11/28 02:51:40;;;;;;;15.00;9.38;;;7.20;99.90;;;;;;4916049;29;20062;-89
2022/11/28 02:54:10;;;;;;;13.43;9.32;;;7.10;99.90;;;;;;4915321;29;20394;-89
2022/11/28 02:56:36;;;;;;;13.57;8.52;;;7.20;99.90;;;;;;4903850;29;20104;-88
2022/11/28 02:59:02;;;;;;;14.90;9.98;;;7.20;99.90;;;;;;4913201;29;20043;-88
2022/11/28 03:01:35;;;;;;;15.90;9.23;;;7.20;99.90;;;;;;4922420;29;20086;-88
2022/11/28 03:04:42;;;;;;;14.85;8.68;;;7.30;99.90;;;;;;4951511;29;20166;-88
2022/11/28 03:07:18;;;;;;;15.73;10.15;;;7.20;99.90;;;;;;4950029;29;20054;-89
2022/11/28 03:10:18;;;;;;;15.45;9.90;;;7.20;99.90;;;;;;4936783;29;20103;-88
2022/11/28 03:13:09;;;;;;;15.30;9.65;;;7.30;99.90;;;;;;4924975;29;20051;-89
2022/11/28 03:16:11;;;;;;;15.85;9.85;;;7.20;99.90;;;;;;4953072;29;20032;-89
2022/11/28 03:18:53;;;;;;;16.15;10.07;;;7.30;99.90;;;;;;4948356;29;20126;-88
2022/11/28 03:21:39;;;;;;;15.93;9.98;;;7.30;99.90;;;;;;4949177;29;20048;-89
2022/11/28 03:24:18;;;;;;;19.45;16.42;;;7.30;99.90;;;;;;4950353;29;20051;-89
2022/11/28 03:26:54;;;;;;;19.65;16.80;;;7.30;99.90;;;;;;4953238;28;20117;-89
2022/11/28 03:29:35;;;;;;;19.25;12.57;;;7.40;99.90;;;;;;4954080;28;20055;-88
2022/11/28 03:32:07;;;;;;;17.27;10.60;;;7.40;99.90;;;;;;4972666;28;20046;-88
2022/11/28 03:34:39;;;;;;;18.85;11.27;;;7.40;99.90;;;;;;4951959;28;20109;-90
2022/11/28 03:37:18;;;;;;;17.45;10.80;;;7.40;99.90;;;;;;4953756;28;20190;-88
2022/11/28 03:39:48;;;;;;;22.27;17.45;;;7.50;99.90;;;;;;4938926;28;20097;-88
2022/11/28 03:42:21;;;;;;;17.98;12.10;;;7.50;99.90;;;;;;4953527;28;20043;-89
2022/11/28 03:44:54;;;;;;;18.50;11.88;;;7.60;99.90;;;;;;4972606;28;20039;-88
2022/11/28 03:47:26;;;;;;;20.05;17.33;;;7.60;99.90;;;;;;4969461;28;20038;-89
2022/11/28 03:49:54;;;;;;;17.77;12.73;;;7.60;99.90;;;;;;4970751;28;20038;-88
2022/11/28 03:52:36;;;;;;;17.85;11.15;;;7.60;99.90;;;;;;4972534;28;20126;-89
2022/11/28 03:55:10;;;;;;;;;;;7.60;99.90;;;;;;4955130;28;20049;-88
2022/11/28 03:57:58;;;;;;;17.27;11.50;;;7.60;99.90;;;;;;4948845;29;20276;-88
2022/11/28 04:00:24;;;;;;;16.77;10.60;;;7.60;99.90;;;;;;4936383;28;20535;-88
2022/11/28 04:03:10;;;;;;;16.90;12.02;;;7.60;99.90;;;;;;4954206;28;20043;-89
2022/11/28 04:05:52;;;;;;;18.30;12.45;;;7.60;99.90;;;;;;4953023;28;20086;-89
2022/11/28 04:08:28;;;;;;;24.73;21.48;;;7.60;99.90;;;;;;4954224;28;20434;-87
2022/11/28 04:11:03;;;;;;;22.80;20.40;;;7.70;99.90;;;;;;4953757;28;20046;-89
2022/11/28 04:13:39;;;;;;;22.55;20.15;;;7.70;99.90;;;;;;4954272;28;20043;-89
2022/11/28 04:16:27;;;;;;;22.17;15.75;;;7.70;99.90;;;;;;4950826;29;20130;-87
2022/11/28 04:19:48;;;;;;;17.77;12.48;;;7.70;99.90;;;;;;4934611;28;20069;-89
2022/11/28 04:22:37;;;;;;;19.10;11.63;;;7.70;99.90;;;;;;4960324;28;20102;-89
2022/11/28 04:25:08;;;;;;;23.77;21.20;;;7.60;99.90;;;;;;4954056;28;20042;-89
2022/11/28 04:27:38;;;;;;;18.48;13.60;;;7.70;99.90;;;;;;4954543;28;20059;-89
2022/11/28 04:30:07;;;;;;;18.42;12.43;;;7.70;99.90;;;;;;4952928;28;20129;-89
2022/11/28 04:32:38;;;;;;;27.63;24.27;;;7.70;99.90;;;;;;4950551;28;20039;-89
2022/11/28 04:35:35;;;;;;;24.40;16.08;;;7.70;99.90;;;;;;4952766;28;20113;-88
2022/11/28 04:38:03;;;;;;;22.65;16.02;;;7.70;99.90;;;;;;4952428;28;20055;-89
2022/11/28 04:40:33;;;;;;;30.08;27.00;;;7.70;99.90;;;;;;4954288;28;20039;-88
2022/11/28 04:43:12;;;;;;;23.97;16.87;;;7.80;99.90;;;;;;4952326;28;20050;-87
2022/11/28 04:45:50;;;;;;;27.05;18.55;;;7.70;99.90;;;;;;4970316;28;20034;-88
2022/11/28 04:48:16;;;;;;;33.45;29.98;;;7.70;99.90;;;;;;4968974;28;20399;-88
2022/11/28 04:51:06;;;;;;;33.63;30.33;;;7.80;99.90;;;;;;4954214;28;20045;-89
2022/11/28 04:53:38;;;;;;;36.30;32.70;;;7.80;99.90;;;;;;4964890;28;20053;-88
2022/11/28 04:56:10;;;;;;;27.23;19.10;;;7.80;99.90;;;;;;4951581;28;20043;-88
2022/11/28 04:58:41;;;;;;;23.10;16.45;;;7.80;99.90;;;;;;4952596;28;20503;-88
2022/11/28 05:01:10;;;;;;;25.35;15.70;;;7.70;99.90;;;;;;4953534;28;20392;-88
2022/11/28 05:03:38;;;;;;;32.90;29.60;;;7.70;99.90;;;;;;4952784;28;20043;-89
2022/11/28 05:06:04;;;;;;;27.55;19.23;;;7.80;99.90;;;;;;4971098;28;20043;-89
2022/11/28 05:08:30;;;;;;;25.38;16.15;;;7.80;99.90;;;;;;4953544;28;20133;-88
2022/11/28 05:10:55;;;;;;;23.15;16.70;;;7.70;99.90;;;;;;4954009;28;20174;-87
2022/11/28 05:13:21;;;;;;;29.92;26.95;;;7.80;99.90;;;;;;4937202;28;20070;-87
2022/11/28 05:15:47;;;;;;;23.55;15.63;;;7.80;99.90;;;;;;4953289;28;20522;-90
2022/11/28 05:18:12;;;;;;;23.55;16.85;;;7.80;99.90;;;;;;4952002;28;20050;-88
2022/11/28 05:20:39;;;;;;;20.75;15.30;;;7.80;99.90;;;;;;4971285;28;20042;-89
2022/11/28 05:23:05;;;;;;;28.33;25.30;;;7.80;99.90;;;;;;4969212;28;20121;-88
2022/11/28 05:25:31;;;;;;;27.40;24.50;;;7.80;99.90;;;;;;4952925;28;20182;-89
2022/11/28 05:27:57;;;;;;;27.30;24.58;;;7.90;99.90;;;;;;4953541;28;20053;-89
2022/11/28 05:30:22;;;;;;;23.40;15.25;;;7.90;99.90;;;;;;4953526;28;20408;-87
2022/11/28 05:32:48;;;;;;;22.73;16.23;;;7.90;99.90;;;;;;4951301;28;20391;-88
2022/11/28 05:35:13;;;;;;;22.90;16.35;;;7.90;99.90;;;;;;4938061;28;20121;-88
2022/11/28 05:37:39;;;;;;;28.58;25.52;;;7.80;99.90;;;;;;4952276;28;20047;-88
2022/11/28 05:40:05;;;;;;;28.33;25.38;;;7.90;99.90;;;;;;4953199;28;20042;-88
2022/11/28 05:42:32;;;;;;;21.80;16.77;;;8.00;99.90;;;;;;4936656;28;20046;-88
2022/11/28 05:44:58;;;;;;;24.40;17.83;;;7.90;99.90;;;;;;4953465;28;20031;-88
2022/11/28 05:47:24;;;;;;;22.73;15.32;;;7.90;99.90;;;;;;4968091;28;20042;-87
2022/11/28 05:49:49;;;;;;;30.60;27.45;;;7.90;99.90;;;;;;4952933;28;20487;-88
2022/11/28 05:52:15;;;;;;;26.02;17.50;;;7.90;99.90;;;;;;4952172;28;20042;-88
2022/11/28 05:54:40;;;;;;;25.10;18.80;;;7.90;99.90;;;;;;4937289;28;20043;-89
2022/11/28 05:57:06;;;;;;;30.15;27.15;;;7.90;99.90;;;;;;4952965;28;20126;-88
2022/11/28 05:59:32;;;;;;;30.90;27.80;;;8.00;99.90;;;;;;4962601;28;20035;-88
2022/11/28 06:01:58;;;;;;;32.00;28.58;;;8.00;99.90;;;;;;4951271;28;20042;-88
2022/11/28 06:04:23;;;;;;;24.50;16.30;;;8.00;99.90;;;;;;4956978;28;20451;-89
2022/11/28 06:06:50;;;;;;;24.40;16.45;;;8.00;99.90;;;;;;4958548;28;20043;-89
2022/11/28 06:09:15;;;;;;;24.17;16.50;;;7.90;99.90;;;;;;4943440;28;20039;-89
2022/11/28 06:11:41;;;;;;;31.10;27.90;;;7.90;99.90;;;;;;4958969;28;20109;-89
2022/11/28 06:14:07;;;;;;;31.90;28.70;;;8.00;99.90;;;;;;4975943;28;20038;-87
2022/11/28 06:16:33;;;;;;;25.73;17.23;;;8.00;99.90;;;;;;4973509;28;20035;-89
2022/11/28 06:19:01;;;;;;;26.10;18.00;;;7.90;99.90;;;;;;4941647;28;20047;-89
2022/11/28 06:21:27;;;;;;;23.70;17.15;;;7.90;99.90;;;;;;4958003;28;20042;-92
2022/11/28 06:23:53;;;;;;;32.20;28.85;;;7.90;99.90;;;;;;4958508;28;20037;-90
2022/11/28 06:26:21;;;;;;;32.55;29.25;;;7.90;99.90;;;;;;4959177;28;20066;-89
2022/11/28 06:28:47;;;;;;;22.83;16.75;;;8.00;99.90;;;;;;4958703;28;20047;-88
2022/11/28 06:31:16;;;;;;;23.88;16.42;;;8.00;99.90;;;;;;4973854;28;20031;-88
2022/11/28 06:33:41;;;;;;;30.30;27.20;;;7.90;99.90;;;;;;4975846;28;20039;-90
2022/11/28 06:36:08;;;;;;;30.45;27.35;;;8.00;99.90;;;;;;4958645;28;20042;-89
2022/11/28 06:38:34;;;;;;;30.40;27.20;;;8.00;99.90;;;;;;4959484;28;20131;-89
2022/11/28 06:41:04;;;;;;;24.80;16.52;;;8.00;99.90;;;;;;4956852;28;20133;-87
2022/11/28 06:43:30;;;;;;;21.27;15.77;;;8.00;99.90;;;;;;4974499;28;20038;-87
2022/11/28 06:45:55;;;;;;;23.08;16.58;;;7.90;99.90;;;;;;4956876;28;20037;-89
2022/11/28 06:48:21;;;;;;;28.00;25.15;;;7.90;99.90;;;;;;4958976;28;20035;-88
2022/11/28 06:50:47;;;;;;;27.48;24.67;;;8.00;99.90;;;;;;4971118;28;20044;-89
2022/11/28 06:53:13;;;;;;;27.52;24.75;;;8.00;99.90;;;;;;4958981;28;20460;-89
2022/11/28 06:55:39;;;;;;;27.15;24.35;;;8.00;99.90;;;;;;4957143;28;20074;-89
2022/11/28 06:58:04;;;;;;;26.90;24.13;;;8.00;99.90;;;;;;4951735;28;20160;-87
2022/11/28 07:00:30;;;;;;;19.80;14.15;;;8.00;99.90;;;;;;4959552;28;20042;-88
2022/11/28 07:02:57;;;;;;;21.92;15.20;;;8.00;99.90;;;;;;4957918;28;20046;-89
2022/11/28 07:05:26;;;;;;;19.55;14.00;;;8.00;99.90;;;;;;4958686;28;20058;-91
2022/11/28 07:07:52;;;;;;;23.38;20.95;;;8.00;99.90;;;;;;4958904;28;20043;-90
2022/11/28 07:10:19;;;;;;;21.92;14.10;;;8.00;99.90;;;;;;4956892;28;20068;-89
2022/11/28 07:12:44;;;;;;;19.50;13.77;;;8.00;99.90;;;;;;4942206;28;20383;-90
2022/11/28 07:15:10;;;;;;;23.52;21.13;;;8.00;99.90;;;;;;4955621;28;20097;-90
2022/11/28 07:17:36;;;;;;;22.42;20.23;;;8.10;99.90;;;;;;4956187;28;20105;-90
2022/11/28 07:20:02;;;;;;;18.20;13.95;;;8.10;99.90;;;;;;4954552;28;20043;-90
2022/11/28 07:22:28;;;;;;;22.33;20.05;;;8.00;99.90;;;;;;4954694;28;20055;-89
2022/11/28 07:24:53;;;;;;;21.77;19.60;;;8.10;99.90;;;;;;4971149;28;20046;-90
2022/11/28 07:27:19;;;;;;;17.88;12.07;;;8.10;99.90;;;;;;4933712;28;20047;-89
2022/11/28 07:29:44;;;;;;;16.52;10.95;;;8.00;99.90;;;;;;4965553;28;20407;-88
2022/11/28 07:32:10;;;;;;;19.73;10.82;;;8.10;99.90;;;;;;4973024;28;20049;-89
2022/11/28 07:34:36;;;;;;;16.80;11.30;;;8.00;99.90;;;;;;4957018;28;20046;-89
2022/11/28 07:37:01;;;;;;;20.75;13.52;;;8.00;99.90;;;;;;4956854;28;20050;-87
2022/11/28 07:39:27;;;;;;;16.98;11.48;;;8.00;99.90;;;;;;4957119;28;20047;-89
2022/11/28 07:41:52;;;;;;;20.02;17.92;;;8.10;99.90;;;;;;4956488;28;20126;-91
2022/11/28 07:44:18;;;;;;;20.75;18.35;;;8.10;99.90;;;;;;4942792;28;20046;-89
2022/11/28 07:46:45;;;;;;;22.13;18.17;;;8.10;99.90;;;;;;4955867;28;20110;-89
2022/11/28 07:49:12;;;;;;;17.98;11.57;;;8.10;99.90;;;;;;4967257;28;20404;-90
2022/11/28 07:51:38;;;;;;;20.23;18.17;;;8.10;99.90;;;;;;4946679;28;20046;-89
2022/11/28 07:54:04;;;;;;;18.52;12.57;;;8.10;99.90;;;;;;4974031;28;20166;-89
2022/11/28 07:56:32;;;;;;;17.58;11.45;;;8.10;99.90;;;;;;4949578;28;20551;-90
2022/11/28 07:58:59;;;;;;;20.33;18.13;;;8.10;99.90;;;;;;4969420;28;20113;-89
2022/11/28 08:01:27;;;;;;;20.23;18.13;;;8.10;99.90;;;;;;4947657;28;20035;-89
2022/11/28 08:03:54;;;;;;;16.70;11.82;;;8.10;99.90;;;;;;4972628;28;20444;-90
2022/11/28 08:06:22;;;;;;;16.33;10.68;;;8.10;99.90;;;;;;4952929;28;20046;-88
2022/11/28 08:08:49;;;;;;;14.13;10.00;;;8.00;99.90;;;;;;4954816;28;20071;-89
2022/11/28 08:11:16;;;;;;;15.85;11.13;;;8.00;99.90;;;;;;4953699;28;20046;-89
2022/11/28 08:13:42;;;;;;;19.95;17.85;;;8.00;99.90;;;;;;4973026;28;20081;-90
2022/11/28 08:16:12;;;;;;;19.75;17.65;;;8.10;99.90;;;;;;4952705;28;20043;-83
2022/11/28 08:18:38;;;;;;;21.00;18.80;;;8.10;99.90;;;;;;4953044;28;20038;-85
2022/11/28 08:21:24;;;;;;;20.00;17.80;;;8.10;99.90;;;;;;4971271;28;20480;-86
2022/11/28 08:23:51;;;;;;;13.43;9.98;;;8.10;99.90;;;;;;4953104;28;20062;-85
2022/11/28 08:26:20;;;;;;;14.23;9.23;;;8.10;99.90;;;;;;4953111;28;20047;-86
2022/11/28 08:28:46;;;;;;;14.68;8.75;;;8.10;99.90;;;;;;4963723;28;20083;-86
2022/11/28 08:31:13;;;;;;;19.17;17.08;;;8.10;99.90;;;;;;4966684;28;20062;-85
2022/11/28 08:33:39;;;;;;;19.65;17.55;;;8.10;99.90;;;;;;4954039;28;20062;-87
2022/11/28 08:36:10;;;;;;;21.08;18.52;;;8.10;99.90;;;;;;4928221;28;20046;-86
2022/11/28 08:38:36;;;;;;;16.23;10.52;;;8.10;99.90;;;;;;4950789;28;20365;-86
2022/11/28 08:41:03;;;;;;;14.93;9.90;;;8.10;99.90;;;;;;4937012;28;20046;-86
2022/11/28 08:43:29;;;;;;;15.43;10.27;;;8.10;99.90;;;;;;4952379;28;20043;-86
2022/11/28 08:45:55;;;;;;;20.48;18.38;;;8.00;99.90;;;;;;4947439;28;20027;-88
2022/11/28 08:48:20;;;;;;;16.15;10.30;;;8.10;99.90;;;;;;4953806;28;20130;-87
2022/11/28 08:50:47;;;;;;;18.80;16.80;;;8.10;99.90;;;;;;4953887;28;20038;-86
2022/11/28 08:53:12;;;;;;;20.17;17.23;;;8.20;99.90;;;;;;4946927;28;20074;-86
2022/11/28 08:55:40;;;;;;;15.32;9.65;;;8.20;99.90;;;;;;4952034;28;20785;-89
2022/11/28 08:58:06;;;;;;;19.02;16.58;;;8.10;99.90;;;;;;4947122;28;20130;-86
2022/11/28 09:00:32;;;;;;;14.80;10.05;;;8.20;99.90;;;;;;4951260;28;20038;-86
2022/11/28 09:02:58;;;;;;;16.23;10.30;;;8.20;99.90;;;;;;4954983;28;20070;-86
2022/11/28 09:05:23;;;;;;;18.58;16.20;;;8.10;99.90;;;;;;4955327;28;20081;-87
2022/11/28 09:07:49;;;;;;;19.23;17.13;;;8.20;99.90;;;;;;4955106;28;20525;-87
2022/11/28 09:10:14;;;;;;;19.55;17.20;;;8.20;99.90;;;;;;4954744;28;20054;-86
2022/11/28 09:12:40;;;;;;;15.65;9.88;;;8.20;99.90;;;;;;4955355;28;20065;-86
2022/11/28 09:15:06;;;;;;;15.77;9.38;;;8.20;99.90;;;;;;4954052;28;20038;-87
2022/11/28 09:17:32;;;;;;;18.20;16.30;;;8.20;99.90;;;;;;4972508;28;20053;-86
2022/11/28 09:19:57;;;;;;;18.10;16.02;;;8.20;99.90;;;;;;4954042;28;20039;-86
2022/11/28 09:22:23;;;;;;;19.05;16.42;;;8.20;99.90;;;;;;4952333;28;20042;-84
2022/11/28 09:24:48;;;;;;;20.52;16.88;;;8.30;99.90;;;;;;4952931;28;20047;-86
2022/11/28 09:27:14;;;;;;;18.67;16.23;;;8.30;99.90;;;;;;4952380;28;20058;-86
2022/11/28 09:29:40;;;;;;;15.23;10.73;;;8.30;99.90;;;;;;4970443;28;20039;-85
2022/11/28 09:32:05;;;;;;;14.80;9.63;;;8.20;99.90;;;;;;4953288;28;20034;-84
2022/11/28 09:34:31;;;;;;;14.48;9.32;;;8.20;99.90;;;;;;4969531;28;20050;-85
2022/11/28 09:36:56;;;;;;;13.65;8.77;;;8.20;99.90;;;;;;4952199;28;20457;-85
2022/11/28 09:39:22;;;;;;;13.93;9.48;;;8.20;99.90;;;;;;4969638;28;20039;-85
2022/11/28 09:42:23;;;;;;;18.20;15.45;;;8.20;99.90;;;;;;4952311;28;20047;-86
2022/11/28 09:44:51;;;;;;;;;;;8.30;99.90;;;;;;4951908;28;20074;-86
2022/11/28 09:47:21;;;;;;;14.13;10.15;;;8.20;99.90;;;;;;4953302;28;20015;-86
2022/11/28 09:50:09;;;;;;;18.77;16.48;;;8.30;99.90;;;;;;4950805;28;20070;-85
2022/11/28 09:52:59;;;;;;;17.42;15.35;;;8.30;99.90;;;;;;4965547;28;20065;-85
2022/11/28 09:55:31;;;;;;;17.23;15.43;;;8.30;99.90;;;;;;4941989;28;20051;-85
2022/11/28 09:58:00;;;;;;;17.58;15.55;;;8.30;99.90;;;;;;4964070;28;20647;-86
2022/11/28 10:00:54;;;;;;;20.25;16.27;;;8.40;99.90;;;;;;4961913;28;20039;-85
2022/11/28 10:03:36;;;;;;;18.83;16.60;;;8.40;99.90;;;;;;4963623;28;20500;-86
2022/11/28 10:06:04;;;;;;;;;;;8.40;99.90;;;;;;4950881;28;20039;-85
2022/11/28 10:08:48;;;;;;;15.50;10.02;;;8.30;99.90;;;;;;4952470;28;19918;-84
2022/11/28 10:11:32;;;;;;;18.92;10.07;;;8.30;99.90;;;;;;4946997;28;20388;-85
2022/11/28 10:14:28;;;;;;;21.38;17.95;;;8.30;99.90;;;;;;4969512;28;20047;-85
2022/11/28 10:17:16;;;;;;;21.02;17.85;;;8.40;99.90;;;;;;4950856;28;20046;-85
2022/11/28 10:20:04;;;;;;;15.52;9.90;;;8.40;99.90;;;;;;4951562;28;20079;-86
2022/11/28 10:22:46;;;;;;;14.80;10.38;;;8.40;99.90;;;;;;4962988;28;20043;-84
2022/11/28 10:25:18;;;;;;;19.95;17.27;;;8.40;99.90;;;;;;4946056;28;20034;-85
2022/11/28 10:27:45;;;;;;;18.90;16.40;;;8.50;99.90;;;;;;4969435;28;20065;-86
2022/11/28 10:30:23;;;;;;;18.85;16.85;;;8.50;99.90;;;;;;4951884;28;20055;-86
2022/11/28 10:33:04;;;;;;;20.55;17.48;;;8.50;99.90;;;;;;4948465;28;20058;-86
2022/11/28 10:35:46;;;;;;;16.52;10.25;;;8.60;99.90;;;;;;4962701;28;20387;-85
2022/11/28 10:38:13;;;;;;;14.20;9.48;;;8.60;99.90;;;;;;4952541;28;20054;-86
2022/11/28 10:40:42;;;;;;;18.85;16.77;;;8.60;99.90;;;;;;4951943;28;20170;-87
2022/11/28 10:43:34;;;;;;;14.80;9.32;;;8.60;99.90;;;;;;4951631;28;20039;-87
2022/11/28 10:46:24;;;;;;;12.90;8.73;;;8.60;99.90;;;;;;4968783;28;20081;-86
2022/11/28 10:49:01;;;;;;;17.77;15.65;;;8.60;99.90;;;;;;4959533;28;20481;-86
2022/11/28 10:51:44;;;;;;;15.10;9.85;;;8.70;99.90;;;;;;4955296;28;20051;-86
2022/11/28 10:54:34;;;;;;;18.15;15.38;;;8.70;99.90;;;;;;4955798;28;20308;-85
2022/11/28 10:57:14;;;;;;;16.35;14.55;;;8.80;99.90;;;;;;4955078;28;20105;-85
2022/11/28 11:00:02;;;;;;;17.13;14.48;;;8.80;99.90;;;;;;4947788;28;20071;-85
2022/11/28 11:02:49;;;;;;;15.30;13.68;;;8.80;99.90;;;;;;4954061;28;20042;-85
2022/11/28 11:05:20;;;;;;;17.00;14.77;;;8.80;99.90;;;;;;4945359;28;20054;-86
2022/11/28 11:07:51;;;;;;;16.73;14.15;;;8.80;99.90;;;;;;4955505;28;20047;-86
2022/11/28 11:10:36;;;;;;;12.80;8.43;;;8.80;99.90;;;;;;4972543;28;20049;-86
2022/11/28 11:13:15;;;;;;;17.58;14.90;;;8.80;99.90;;;;;;4973200;28;20047;-87
2022/11/28 11:15:41;;;;;;;17.02;14.05;;;8.80;99.90;;;;;;4972915;28;20047;-85
2022/11/28 11:18:24;;;;;;;16.15;14.32;;;8.80;99.90;;;;;;4972111;28;20037;-87
2022/11/28 11:20:51;;;;;;;15.75;14.05;;;8.80;99.90;;;;;;4970796;28;20030;-86
2022/11/28 11:23:21;;;;;;;16.10;13.68;;;8.90;99.90;;;;;;4939088;28;20051;-87
2022/11/28 11:25:51;;;;;;;13.50;8.23;;;8.90;99.90;;;;;;4953849;28;20396;-86
2022/11/28 11:28:45;;;;;;;12.88;8.20;;;8.80;99.90;;;;;;4950073;28;20052;-86
2022/11/28 11:31:25;;;;;;;16.85;14.40;;;8.80;99.90;;;;;;4926136;29;20047;-87
2022/11/28 11:34:06;;;;;;;16.42;14.63;;;8.90;99.90;;;;;;4932743;29;20392;-86
2022/11/28 11:36:35;;;;;;;16.98;14.80;;;8.90;99.90;;;;;;4933332;29;20400;-87
2022/11/28 11:39:15;;;;;;;17.35;15.30;;;8.80;99.90;;;;;;4932723;29;20152;-86
2022/11/28 11:42:00;;;;;;;13.48;8.55;;;8.90;99.90;;;;;;4934423;29;20075;-87
2022/11/28 11:44:33;;;;;;;13.60;8.20;;;8.80;99.90;;;;;;4927304;29;20044;-87
2022/11/28 11:47:04;;;;;;;15.68;13.88;;;8.80;99.90;;;;;;4933137;29;20440;-87
2022/11/28 11:49:37;;;;;;;12.80;8.40;;;8.80;99.90;;;;;;4925448;29;20040;-86
2022/11/28 11:52:11;;;;;;;18.25;15.38;;;8.80;99.90;;;;;;4931821;29;20051;-88
2022/11/28 11:54:38;;;;;;;16.05;14.30;;;8.80;99.90;;;;;;4940050;29;20052;-86
2022/11/28 11:57:05;;;;;;;17.83;15.93;;;8.80;99.90;;;;;;4931734;29;20084;-86
2022/11/28 11:59:41;;;;;;;14.00;9.13;;;8.90;99.90;;;;;;4931018;29;20044;-86
2022/11/28 12:02:31;;;;;;;13.65;8.82;;;8.80;99.90;;;;;;4929093;29;20114;-86
2022/11/28 12:05:22;;;;;;;12.77;8.23;;;8.80;99.90;;;;;;4927152;29;20075;-85
2022/11/28 12:08:10;;;;;;;16.52;14.30;;;8.80;99.90;;;;;;4924700;29;20131;-85
2022/11/28 12:10:44;;;;;;;15.77;13.93;;;8.80;99.90;;;;;;4933071;29;20103;-84
2022/11/28 12:13:22;;;;;;;20.33;15.45;;;8.90;99.90;;;;;;4926037;29;20043;-85
2022/11/28 12:16:06;;;;;;;17.42;14.80;;;8.80;99.90;;;;;;4928557;29;20048;-87
2022/11/28 12:18:54;;;;;;;21.02;16.40;;;8.90;99.90;;;;;;4907522;29;20051;-87
2022/11/28 12:21:20;;;;;;;19.33;15.95;;;8.80;99.90;;;;;;4932757;29;20043;-86
2022/11/28 12:24:00;;;;;;;17.58;14.93;;;8.90;99.90;;;;;;4923544;29;20386;-84
2022/11/28 12:26:39;;;;;;;14.32;9.18;;;8.90;99.90;;;;;;4923730;29;20058;-85
2022/11/28 12:29:36;;;;;;;16.98;15.15;;;8.80;99.90;;;;;;4929085;29;20106;-85
2022/11/28 12:32:17;;;;;;;18.55;15.57;;;8.90;99.90;;;;;;4930945;29;20050;-85
2022/11/28 12:35:14;;;;;;;14.55;9.30;;;8.90;99.90;;;;;;4931635;29;20051;-86
2022/11/28 12:38:16;;;;;;;17.65;13.80;;;8.90;99.90;;;;;;4931850;29;20127;-86
2022/11/28 12:41:19;;;;;;;16.83;13.65;;;8.90;99.90;;;;;;4922482;29;20051;-85
2022/11/28 12:43:50;;;;;;;17.42;14.02;;;8.90;99.90;;;;;;4929646;29;20052;-85
2022/11/28 12:46:19;;;;;;;16.65;13.95;;;8.90;99.90;;;;;;4921633;29;20052;-85
2022/11/28 12:49:09;;;;;;;18.13;14.05;;;8.90;99.90;;;;;;4919708;29;20103;-85
2022/11/28 12:51:58;;;;;;;13.03;8.77;;;8.90;99.90;;;;;;4924041;29;20047;-85
2022/11/28 12:54:45;;;;;;;15.23;13.30;;;8.90;99.90;;;;;;4931162;29;20072;-85
2022/11/28 12:57:32;;;;;;;16.33;13.15;;;8.90;99.90;;;;;;4941005;28;20063;-84
2022/11/28 13:00:02;;;;;;;15.15;13.00;;;8.90;99.90;;;;;;4939538;28;20110;-85
2022/11/28 13:03:07;;;;;;;13.18;7.85;;;8.90;99.90;;;;;;4947940;28;20053;-86
2022/11/28 13:05:54;;;;;;;15.90;13.18;;;8.90;99.90;;;;;;4934662;29;20148;-85
2022/11/28 13:08:28;;;;;;;16.27;13.60;;;8.90;99.90;;;;;;4933432;29;20076;-87
2022/11/28 13:11:15;;;;;;;15.30;12.77;;;8.90;99.90;;;;;;4922234;29;20036;-87